DLH17 EDLW-EDDF
Flight info
| Callsign | DLH17 |
|---|---|
| Flight time | N/A |
| Altitude | 8000 |
| Route | GMH8Q GMH DCT COL/N0294F110 T911 ROLIS ROLIS5A |
| Aircraft | A20N/M-SDE2E3FGHIRWXY/LB1 |
Departure
| Time | 2026-05-06 19:09 |
|---|---|
| Airport | Dortmund Airport (EDLW) |
Arrival
| Time | N/A |
|---|---|
| Airport | Frankfurt Main Airport (EDDF) |
| Time | Latitude | Longitude | Altitude | Speed | Heading |
|---|---|---|---|---|---|
| 2026-05-06 18:48 | 51.51627 | 7.61414 | 431 ft | 0 kts | 152° |
| 2026-05-06 19:00 | 51.51633 | 7.61409 | 430 ft | 1 kts | 152° |
| 2026-05-06 19:00 | 51.51639 | 7.61403 | 420 ft | 1 kts | 152° |
| 2026-05-06 19:00 | 51.51646 | 7.61397 | 416 ft | 1 kts | 152° |
| 2026-05-06 19:00 | 51.51653 | 7.61392 | 415 ft | 1 kts | 152° |
| 2026-05-06 19:01 | 51.51660 | 7.61386 | 412 ft | 1 kts | 162° |
| 2026-05-06 19:01 | 51.51667 | 7.61383 | 406 ft | 1 kts | 177° |
| 2026-05-06 19:01 | 51.51675 | 7.61382 | 394 ft | 1 kts | 192° |
| 2026-05-06 19:01 | 51.51683 | 7.61385 | 393 ft | 1 kts | 198° |
| 2026-05-06 19:02 | 51.51690 | 7.61389 | 423 ft | 1 kts | 204° |
| 2026-05-06 19:02 | 51.51697 | 7.61394 | 417 ft | 1 kts | 214° |
| 2026-05-06 19:02 | 51.51701 | 7.61398 | 417 ft | 0 kts | 242° |
| 2026-05-06 19:03 | 51.51700 | 7.61394 | 416 ft | 2 kts | 242° |
| 2026-05-06 19:04 | 51.51691 | 7.61367 | 425 ft | 4 kts | 242° |
| 2026-05-06 19:04 | 51.51674 | 7.61316 | 421 ft | 6 kts | 242° |
| 2026-05-06 19:04 | 51.51651 | 7.61247 | 421 ft | 8 kts | 241° |
| 2026-05-06 19:04 | 51.51618 | 7.61152 | 424 ft | 12 kts | 241° |
| 2026-05-06 19:05 | 51.51575 | 7.61010 | 419 ft | 16 kts | 245° |
| 2026-05-06 19:05 | 51.51518 | 7.60837 | 414 ft | 20 kts | 238° |
| 2026-05-06 19:05 | 51.51443 | 7.60627 | 424 ft | 23 kts | 240° |
| 2026-05-06 19:05 | 51.51424 | 7.60574 | 427 ft | 0 kts | 241° |
| 2026-05-06 19:06 | 51.51424 | 7.60573 | 427 ft | 1 kts | 242° |
| 2026-05-06 19:07 | 51.51414 | 7.60541 | 422 ft | 5 kts | 243° |
| 2026-05-06 19:07 | 51.51389 | 7.60467 | 425 ft | 10 kts | 241° |
| 2026-05-06 19:07 | 51.51359 | 7.60345 | 427 ft | 14 kts | 271° |
| 2026-05-06 19:07 | 51.51433 | 7.60245 | 416 ft | 14 kts | 335° |
| 2026-05-06 19:08 | 51.51501 | 7.60285 | 418 ft | 11 kts | 60° |
| 2026-05-06 19:08 | 51.51506 | 7.60299 | 412 ft | 2 kts | 60° |
| 2026-05-06 19:08 | 51.51519 | 7.60335 | 420 ft | 8 kts | 60° |
| 2026-05-06 19:08 | 51.51648 | 7.60700 | 416 ft | 75 kts | 60° |
| 2026-05-06 19:09 | 51.52014 | 7.61737 | 415 ft | 136 kts | 60° |
| 2026-05-06 19:09 | 51.52498 | 7.63168 | 1034 ft | 146 kts | 58° |
| 2026-05-06 19:09 | 51.52998 | 7.64608 | 1966 ft | 148 kts | 57° |
| 2026-05-06 19:09 | 51.53537 | 7.66081 | 2619 ft | 160 kts | 57° |
| 2026-05-06 19:10 | 51.54147 | 7.67668 | 3148 ft | 174 kts | 56° |
| 2026-05-06 19:10 | 51.54821 | 7.69398 | 3678 ft | 193 kts | 56° |
| 2026-05-06 19:10 | 51.55545 | 7.71402 | 4166 ft | 222 kts | 58° |
| 2026-05-06 19:10 | 51.56326 | 7.73700 | 4796 ft | 247 kts | 60° |
| 2026-05-06 19:11 | 51.57153 | 7.76241 | 5586 ft | 261 kts | 60° |
| 2026-05-06 19:11 | 51.58026 | 7.78848 | 6626 ft | 268 kts | 59° |
| 2026-05-06 19:11 | 51.58835 | 7.81571 | 7346 ft | 274 kts | 73° |
| 2026-05-06 19:11 | 51.58902 | 7.84648 | 7696 ft | 282 kts | 100° |
| 2026-05-06 19:12 | 51.58068 | 7.87493 | 7850 ft | 286 kts | 128° |
| 2026-05-06 19:12 | 51.56496 | 7.89442 | 7883 ft | 288 kts | 156° |
| 2026-05-06 19:12 | 51.54541 | 7.90021 | 7881 ft | 289 kts | 184° |
| 2026-05-06 19:12 | 51.52650 | 7.89043 | 8215 ft | 286 kts | 214° |
| 2026-05-06 19:13 | 51.51313 | 7.86731 | 9118 ft | 284 kts | 243° |
| 2026-05-06 19:13 | 51.50807 | 7.83731 | 10156 ft | 285 kts | 269° |
| 2026-05-06 19:13 | 51.51048 | 7.80482 | 10714 ft | 305 kts | 279° |
| 2026-05-06 19:13 | 51.51017 | 7.76972 | 11124 ft | 329 kts | 258° |
| 2026-05-06 19:14 | 51.50107 | 7.73544 | 11848 ft | 340 kts | 236° |
| 2026-05-06 19:14 | 51.48464 | 7.70784 | 12495 ft | 346 kts | 217° |
| 2026-05-06 19:14 | 51.46289 | 7.69041 | 12769 ft | 362 kts | 196° |
| 2026-05-06 19:14 | 51.43780 | 7.68547 | 12874 ft | 365 kts | 176° |
| 2026-05-06 19:15 | 51.41316 | 7.69422 | 12879 ft | 358 kts | 156° |
| 2026-05-06 19:15 | 51.39257 | 7.71537 | 12881 ft | 351 kts | 135° |
| 2026-05-06 19:15 | 51.37588 | 7.74440 | 12877 ft | 356 kts | 132° |
| 2026-05-06 19:15 | 51.35769 | 7.77140 | 12881 ft | 357 kts | 142° |
| 2026-05-06 19:16 | 51.33695 | 7.79295 | 12881 ft | 353 kts | 151° |
| 2026-05-06 19:16 | 51.31471 | 7.80997 | 12874 ft | 354 kts | 156° |
| 2026-05-06 19:16 | 51.29183 | 7.82433 | 12873 ft | 353 kts | 160° |
| 2026-05-06 19:16 | 51.26864 | 7.83754 | 12867 ft | 354 kts | 161° |
| 2026-05-06 19:17 | 51.24538 | 7.85038 | 12863 ft | 354 kts | 161° |
| 2026-05-06 19:17 | 51.22218 | 7.86315 | 12862 ft | 352 kts | 160° |
| 2026-05-06 19:17 | 51.19928 | 7.87580 | 12914 ft | 355 kts | 161° |
| 2026-05-06 19:17 | 51.17491 | 7.88221 | 13558 ft | 356 kts | 181° |
| 2026-05-06 19:18 | 51.15073 | 7.87552 | 14511 ft | 354 kts | 200° |
| 2026-05-06 19:18 | 51.12815 | 7.85941 | 15306 ft | 358 kts | 206° |
| 2026-05-06 19:18 | 51.10555 | 7.84195 | 16087 ft | 363 kts | 206° |
| 2026-05-06 19:18 | 51.08273 | 7.82413 | 16890 ft | 367 kts | 206° |
| 2026-05-06 19:19 | 51.05973 | 7.80620 | 17791 ft | 367 kts | 206° |
| 2026-05-06 19:19 | 51.03662 | 7.78829 | 18430 ft | 373 kts | 206° |
| 2026-05-06 19:19 | 51.02093 | 7.77711 | 18626 ft | 375 kts | 200° |
| 2026-05-06 19:19 | 50.99520 | 7.76916 | 18812 ft | 380 kts | 182° |
| 2026-05-06 19:20 | 50.96041 | 7.77647 | 18853 ft | 383 kts | 168° |
| 2026-05-06 19:20 | 50.93451 | 7.78664 | 18852 ft | 383 kts | 166° |
| 2026-05-06 19:20 | 50.90874 | 7.79725 | 18850 ft | 383 kts | 166° |
| 2026-05-06 19:20 | 50.89099 | 7.80443 | 18848 ft | 383 kts | 166° |